Kenosha Regional Airport
KENW : now visible

Airfield :











YOU CAN JOIN US ON...

 
LOGIN :

Register | Disclaimer

   EN    FR    IT 

 









Legend :    VFR   Marginal VFR   IFR   Intensive IFR   Very Intensive IFR
Visi :
Ceiling :
>= 8 km
>= 3000ft
5 to 8 km
1000 to 3000 ft
1500m to 5 km
500 to 1000 ft
800 to 1500m
200 to 500 ft
< 800m
< 200 ft
Symbols :   Thunderstorms  Fog  Heavy snow  Heavy precipitations  Wind > 20 kt






- Airport Elevation : 742 ft


KENW - Kenosha Regional

CURRENT METAR :
  • 221053Z AUTO 26005KT 5SM BR CLR M03/M05 A3008 RMK AO2 SLP193 T10331050

EXPIRED METARs :
  • 220953Z AUTO 26005KT 5SM BR CLR M03/M05 A3007 RMK AO2 SLP192 I1000 T10331050
  • 220853Z AUTO 26005KT 7SM CLR M03/M05 A3007 RMK AO2 SLP190 I1000 I3000 T10331050 55006

TAF KENW
Valid from the 22 at 06:00 until the 23 at 06:00 UTC


220520Z 2206/2306 23004KT P6SM BKN080
FM221300 28008KT P6SM SKC
FM222300 24008KT P6SM FEW250
KZAU FIR / North America



MET'MAP, your aeronautical weather chart ! - Copyright ORBIFLY December 2007 - Disclaimer

ORBIFLY MET'MAP TEAM :

Programming & Development : Alexandra Zaïnal
Concept & original design : Baudouin d'Aumeries
Assistance for programming : Marc-Olivier Méhu
Technical & hardware support : Manuel Goepfert

Contact : metmap@orbifly.com




SOURCES & CREDITS :

   NOAA       Earth
Advisory